sensor_id;sensor_type;location;lat;lon;timestamp;pressure;altitude;pressure_sealevel;temperature;humidity
76404;BME280;65232;48.358;2.122;2023-01-16T00:00:19;99084.22;;;6.70;80.77
76404;BME280;65232;48.358;2.122;2023-01-16T00:00:44;99080.88;;;6.68;80.69
76404;BME280;65232;48.358;2.122;2023-01-16T00:01:10;99072.88;;;6.68;81.09
76404;BME280;65232;48.358;2.122;2023-01-16T00:01:36;99067.19;;;6.63;80.95
76404;BME280;65232;48.358;2.122;2023-01-16T00:02:01;99077.13;;;6.61;80.99
76404;BME280;65232;48.358;2.122;2023-01-16T00:02:27;99060.63;;;6.57;81.36
76404;BME280;65232;48.358;2.122;2023-01-16T00:02:52;99072.94;;;6.58;81.36
76404;BME280;65232;48.358;2.122;2023-01-16T00:03:18;99060.63;;;6.57;81.12
76404;BME280;65232;48.358;2.122;2023-01-16T00:03:43;99061.19;;;6.61;81.11
76404;BME280;65232;48.358;2.122;2023-01-16T00:04:09;99052.09;;;6.63;81.25
76404;BME280;65232;48.358;2.122;2023-01-16T00:04:35;99054.47;;;6.66;80.84
76404;BME280;65232;48.358;2.122;2023-01-16T00:05:00;99051.94;;;6.65;80.97
76404;BME280;65232;48.358;2.122;2023-01-16T00:05:26;99045.22;;;6.61;81.21
76404;BME280;65232;48.358;2.122;2023-01-16T00:05:51;99053.50;;;6.58;81.19
76404;BME280;65232;48.358;2.122;2023-01-16T00:06:17;99041.88;;;6.59;81.36
76404;BME280;65232;48.358;2.122;2023-01-16T00:06:42;99046.22;;;6.60;81.47
76404;BME280;65232;48.358;2.122;2023-01-16T00:07:08;99041.03;;;6.58;81.31
76404;BME280;65232;48.358;2.122;2023-01-16T00:07:33;99027.31;;;6.63;81.13
76404;BME280;65232;48.358;2.122;2023-01-16T00:07:59;99027.31;;;6.63;81.30
76404;BME280;65232;48.358;2.122;2023-01-16T00:08:24;99025.66;;;6.62;81.19
76404;BME280;65232;48.358;2.122;2023-01-16T00:08:50;99024.66;;;6.63;81.51
76404;BME280;65232;48.358;2.122;2023-01-16T00:09:17;99014.72;;;6.65;81.16
76404;BME280;65232;48.358;2.122;2023-01-16T00:09:43;99015.84;;;6.62;81.12
76404;BME280;65232;48.358;2.122;2023-01-16T00:10:09;99005.91;;;6.64;80.97
76404;BME280;65232;48.358;2.122;2023-01-16T00:10:35;99022.16;;;6.61;81.22
76404;BME280;65232;48.358;2.122;2023-01-16T00:11:00;99001.72;;;6.62;80.97
76404;BME280;65232;48.358;2.122;2023-01-16T00:11:26;99015.59;;;6.56;81.38
76404;BME280;65232;48.358;2.122;2023-01-16T00:11:51;99010.28;;;6.56;81.21
76404;BME280;65232;48.358;2.122;2023-01-16T00:12:17;98998.22;;;6.61;81.53
76404;BME280;65232;48.358;2.122;2023-01-16T00:12:42;99004.09;;;6.65;81.33
76404;BME280;65232;48.358;2.122;2023-01-16T00:13:10;98992.72;;;6.72;80.94
76404;BME280;65232;48.358;2.122;2023-01-16T00:13:36;98990.19;;;6.71;80.86
76404;BME280;65232;48.358;2.122;2023-01-16T00:14:02;98994.69;;;6.70;80.54
76404;BME280;65232;48.358;2.122;2023-01-16T00:14:29;98971.59;;;6.71;80.53
76404;BME280;65232;48.358;2.122;2023-01-16T00:14:55;99000.84;;;6.71;80.49
76404;BME280;65232;48.358;2.122;2023-01-16T00:15:21;98981.72;;;6.67;80.56
76404;BME280;65232;48.358;2.122;2023-01-16T00:15:48;98975.56;;;6.67;80.97
76404;BME280;65232;48.358;2.122;2023-01-16T00:16:14;98983.34;;;6.68;80.95
76404;BME280;65232;48.358;2.122;2023-01-16T00:16:39;98975.25;;;6.70;80.63
76404;BME280;65232;48.358;2.122;2023-01-16T00:17:05;98980.88;;;6.67;80.79
76404;BME280;65232;48.358;2.122;2023-01-16T00:17:30;98970.91;;;6.69;80.92
76404;BME280;65232;48.358;2.122;2023-01-16T00:17:56;98959.28;;;6.70;80.71
76404;BME280;65232;48.358;2.122;2023-01-16T00:18:21;98966.97;;;6.73;80.69
76404;BME280;65232;48.358;2.122;2023-01-16T00:18:47;98948.66;;;6.70;80.83
76404;BME280;65232;48.358;2.122;2023-01-16T00:19:12;98970.63;;;6.72;80.94
76404;BME280;65232;48.358;2.122;2023-01-16T00:19:38;98960.53;;;6.76;80.42
76404;BME280;65232;48.358;2.122;2023-01-16T00:20:04;98951.44;;;6.78;80.19
76404;BME280;65232;48.358;2.122;2023-01-16T00:20:29;98949.06;;;6.75;80.65
76404;BME280;65232;48.358;2.122;2023-01-16T00:20:55;98948.78;;;6.78;80.72
76404;BME280;65232;48.358;2.122;2023-01-16T00:21:21;98946.13;;;6.78;80.53
76404;BME280;65232;48.358;2.122;2023-01-16T00:21:50;98944.97;;;6.81;80.35
76404;BME280;65232;48.358;2.122;2023-01-16T00:22:16;98930.59;;;6.73;80.53
76404;BME280;65232;48.358;2.122;2023-01-16T00:22:42;98937.44;;;6.76;80.82
76404;BME280;65232;48.358;2.122;2023-01-16T00:23:08;98937.88;;;6.71;80.91
76404;BME280;65232;48.358;2.122;2023-01-16T00:23:35;98927.81;;;6.75;80.91
76404;BME280;65232;48.358;2.122;2023-01-16T00:24:01;98930.47;;;6.75;80.67
76404;BME280;65232;48.358;2.122;2023-01-16T00:24:27;98932.13;;;6.76;80.53
76404;BME280;65232;48.358;2.122;2023-01-16T00:24:52;98925.28;;;6.73;80.70
76404;BME280;65232;48.358;2.122;2023-01-16T00:25:17;98928.50;;;6.77;80.56
76404;BME280;65232;48.358;2.122;2023-01-16T00:25:44;98926.38;;;6.81;80.73
76404;BME280;65232;48.358;2.122;2023-01-16T00:26:09;98914.75;;;6.82;80.24
76404;BME280;65232;48.358;2.122;2023-01-16T00:26:35;98916.03;;;6.78;80.48
76404;BME280;65232;48.358;2.122;2023-01-16T00:27:00;98918.41;;;6.81;80.32
76404;BME280;65232;48.358;2.122;2023-01-16T00:27:26;98912.25;;;6.80;80.54
76404;BME280;65232;48.358;2.122;2023-01-16T00:27:51;98904.41;;;6.79;80.49
76404;BME280;65232;48.358;2.122;2023-01-16T00:28:17;98906.94;;;6.80;80.67
76404;BME280;65232;48.358;2.122;2023-01-16T00:28:42;98903.81;;;6.85;80.48
76404;BME280;65232;48.358;2.122;2023-01-16T00:29:08;98910.28;;;6.82;80.45
76404;BME280;65232;48.358;2.122;2023-01-16T00:29:33;98902.38;;;6.90;80.23
76404;BME280;65232;48.358;2.122;2023-01-16T00:29:59;98898.59;;;6.93;80.11
76404;BME280;65232;48.358;2.122;2023-01-16T00:30:24;98906.84;;;6.90;80.49
76404;BME280;65232;48.358;2.122;2023-01-16T00:30:50;98896.38;;;6.88;80.20
76404;BME280;65232;48.358;2.122;2023-01-16T00:31:15;98891.88;;;6.89;80.29
76404;BME280;65232;48.358;2.122;2023-01-16T00:31:41;98885.28;;;6.93;80.09
76404;BME280;65232;48.358;2.122;2023-01-16T00:32:06;98882.25;;;6.88;80.04
76404;BME280;65232;48.358;2.122;2023-01-16T00:32:32;98871.22;;;6.83;80.18
76404;BME280;65232;48.358;2.122;2023-01-16T00:32:57;98862.44;;;6.82;80.19
76404;BME280;65232;48.358;2.122;2023-01-16T00:33:23;98870.56;;;6.81;80.33
76404;BME280;65232;48.358;2.122;2023-01-16T00:33:49;98858.75;;;6.83;80.45
76404;BME280;65232;48.358;2.122;2023-01-16T00:34:14;98863.41;;;6.81;80.24
76404;BME280;65232;48.358;2.122;2023-01-16T00:34:39;98867.41;;;6.85;80.58
76404;BME280;65232;48.358;2.122;2023-01-16T00:35:05;98854.59;;;6.81;80.12
76404;BME280;65232;48.358;2.122;2023-01-16T00:35:32;98856.28;;;6.82;80.22
76404;BME280;65232;48.358;2.122;2023-01-16T00:35:57;98856.09;;;6.83;80.21
76404;BME280;65232;48.358;2.122;2023-01-16T00:36:23;98853.44;;;6.83;80.07
76404;BME280;65232;48.358;2.122;2023-01-16T00:36:48;98861.75;;;6.80;80.27
76404;BME280;65232;48.358;2.122;2023-01-16T00:37:14;98847.75;;;6.78;80.55
76404;BME280;65232;48.358;2.122;2023-01-16T00:37:39;98849.13;;;6.82;80.42
76404;BME280;65232;48.358;2.122;2023-01-16T00:38:04;98848.13;;;6.83;80.55
76404;BME280;65232;48.358;2.122;2023-01-16T00:38:30;98845.31;;;6.85;80.65
76404;BME280;65232;48.358;2.122;2023-01-16T00:38:57;98844.47;;;6.84;80.42
76404;BME280;65232;48.358;2.122;2023-01-16T00:39:23;98837.81;;;6.80;80.48
76404;BME280;65232;48.358;2.122;2023-01-16T00:39:48;98840.31;;;6.82;80.68
76404;BME280;65232;48.358;2.122;2023-01-16T00:40:14;98828.03;;;6.81;80.26
76404;BME280;65232;48.358;2.122;2023-01-16T00:40:40;98838.66;;;6.81;80.36
76404;BME280;65232;48.358;2.122;2023-01-16T00:41:05;98837.50;;;6.83;80.54
76404;BME280;65232;48.358;2.122;2023-01-16T00:41:31;98826.03;;;6.83;80.34
76404;BME280;65232;48.358;2.122;2023-01-16T00:41:56;98827.88;;;6.82;80.31
76404;BME280;65232;48.358;2.122;2023-01-16T00:42:22;98822.69;;;6.81;80.37
76404;BME280;65232;48.358;2.122;2023-01-16T00:42:47;98818.81;;;6.75;80.77
76404;BME280;65232;48.358;2.122;2023-01-16T00:43:13;98822.16;;;6.77;80.80
76404;BME280;65232;48.358;2.122;2023-01-16T00:43:38;98816.53;;;6.80;80.73
76404;BME280;65232;48.358;2.122;2023-01-16T00:44:04;98807.88;;;6.78;80.83
76404;BME280;65232;48.358;2.122;2023-01-16T00:44:29;98814.03;;;6.79;80.47
76404;BME280;65232;48.358;2.122;2023-01-16T00:44:55;98813.34;;;6.77;80.18
76404;BME280;65232;48.358;2.122;2023-01-16T00:45:20;98804.53;;;6.76;80.66
76404;BME280;65232;48.358;2.122;2023-01-16T00:45:46;98804.94;;;6.81;80.64
76404;BME280;65232;48.358;2.122;2023-01-16T00:46:11;98806.41;;;6.84;80.62
76404;BME280;65232;48.358;2.122;2023-01-16T00:46:37;98788.97;;;6.81;80.29
76404;BME280;65232;48.358;2.122;2023-01-16T00:47:02;98787.16;;;6.82;80.52
76404;BME280;65232;48.358;2.122;2023-01-16T00:47:28;98782.97;;;6.79;80.60
76404;BME280;65232;48.358;2.122;2023-01-16T00:47:54;98781.44;;;6.77;80.67
76404;BME280;65232;48.358;2.122;2023-01-16T00:48:19;98775.16;;;6.78;80.67
76404;BME280;65232;48.358;2.122;2023-01-16T00:48:45;98775.00;;;6.79;81.00
76404;BME280;65232;48.358;2.122;2023-01-16T00:49:10;98773.47;;;6.77;80.92
76404;BME280;65232;48.358;2.122;2023-01-16T00:49:36;98772.03;;;6.82;80.90
76404;BME280;65232;48.358;2.122;2023-01-16T00:50:02;98767.53;;;6.83;80.46
76404;BME280;65232;48.358;2.122;2023-01-16T00:50:27;98774.38;;;6.85;80.33
76404;BME280;65232;48.358;2.122;2023-01-16T00:50:53;98766.78;;;6.90;80.42
76404;BME280;65232;48.358;2.122;2023-01-16T00:51:18;98759.78;;;6.89;80.34
76404;BME280;65232;48.358;2.122;2023-01-16T00:51:44;98762.59;;;6.88;80.23
76404;BME280;65232;48.358;2.122;2023-01-16T00:52:09;98748.13;;;6.82;80.55
76404;BME280;65232;48.358;2.122;2023-01-16T00:52:35;98761.06;;;6.85;80.46
76404;BME280;65232;48.358;2.122;2023-01-16T00:53:00;98764.72;;;6.84;80.58
76404;BME280;65232;48.358;2.122;2023-01-16T00:53:26;98748.13;;;6.82;80.52
76404;BME280;65232;48.358;2.122;2023-01-16T00:53:51;98754.94;;;6.85;80.45
76404;BME280;65232;48.358;2.122;2023-01-16T00:54:17;98754.25;;;6.83;80.64
76404;BME280;65232;48.358;2.122;2023-01-16T00:54:42;98751.13;;;6.87;80.46
76404;BME280;65232;48.358;2.122;2023-01-16T00:55:08;98746.81;;;6.86;80.46
76404;BME280;65232;48.358;2.122;2023-01-16T00:55:34;98734.00;;;6.82;80.53
76404;BME280;65232;48.358;2.122;2023-01-16T00:56:01;98739.34;;;6.90;80.69
76404;BME280;65232;48.358;2.122;2023-01-16T00:56:27;98742.16;;;6.88;80.46
76404;BME280;65232;48.358;2.122;2023-01-16T00:56:52;98732.81;;;6.84;80.31
76404;BME280;65232;48.358;2.122;2023-01-16T00:57:18;98728.50;;;6.83;80.57
76404;BME280;65232;48.358;2.122;2023-01-16T00:57:43;98723.56;;;6.88;80.27
76404;BME280;65232;48.358;2.122;2023-01-16T00:58:09;98734.34;;;6.87;80.41
76404;BME280;65232;48.358;2.122;2023-01-16T00:58:35;98725.22;;;6.89;80.27
76404;BME280;65232;48.358;2.122;2023-01-16T00:59:01;98726.22;;;6.88;80.13
76404;BME280;65232;48.358;2.122;2023-01-16T00:59:26;98721.44;;;6.92;80.17
76404;BME280;65232;48.358;2.122;2023-01-16T00:59:51;98711.41;;;6.86;80.25
76404;BME280;65232;48.358;2.122;2023-01-16T01:00:18;98713.06;;;6.87;80.53
76404;BME280;65232;48.358;2.122;2023-01-16T01:00:46;98709.13;;;6.91;80.30
76404;BME280;65232;48.358;2.122;2023-01-16T01:01:11;98709.59;;;6.86;80.44
76404;BME280;65232;48.358;2.122;2023-01-16T01:01:37;98696.13;;;6.88;80.35
76404;BME280;65232;48.358;2.122;2023-01-16T01:02:02;98703.13;;;6.89;80.21
76404;BME280;65232;48.358;2.122;2023-01-16T01:02:28;98695.00;;;6.90;80.18
76404;BME280;65232;48.358;2.122;2023-01-16T01:02:53;98695.38;;;6.95;79.97
76404;BME280;65232;48.358;2.122;2023-01-16T01:03:19;98692.19;;;6.92;80.11
76404;BME280;65232;48.358;2.122;2023-01-16T01:03:44;98700.31;;;6.90;80.02
76404;BME280;65232;48.358;2.122;2023-01-16T01:04:10;98689.84;;;6.89;79.88
76404;BME280;65232;48.358;2.122;2023-01-16T01:04:37;98685.97;;;6.83;80.20
76404;BME280;65232;48.358;2.122;2023-01-16T01:05:03;98685.66;;;6.86;80.21
76404;BME280;65232;48.358;2.122;2023-01-16T01:05:29;98693.47;;;6.88;80.31
76404;BME280;65232;48.358;2.122;2023-01-16T01:05:54;98679.72;;;6.92;80.22
76404;BME280;65232;48.358;2.122;2023-01-16T01:06:20;98672.22;;;6.88;80.05
76404;BME280;65232;48.358;2.122;2023-01-16T01:06:45;98678.75;;;6.93;80.18
76404;BME280;65232;48.358;2.122;2023-01-16T01:07:10;98670.91;;;6.92;80.02
76404;BME280;65232;48.358;2.122;2023-01-16T01:07:36;98662.56;;;6.87;80.17
76404;BME280;65232;48.358;2.122;2023-01-16T01:08:01;98662.56;;;6.87;80.08
76404;BME280;65232;48.358;2.122;2023-01-16T01:08:27;98665.91;;;6.89;80.05
76404;BME280;65232;48.358;2.122;2023-01-16T01:08:52;98656.56;;;6.85;80.26
76404;BME280;65232;48.358;2.122;2023-01-16T01:09:18;98666.50;;;6.83;80.06
76404;BME280;65232;48.358;2.122;2023-01-16T01:09:43;98627.97;;;6.79;80.39
76404;BME280;65232;48.358;2.122;2023-01-16T01:10:09;98643.75;;;6.80;80.57
76404;BME280;65232;48.358;2.122;2023-01-16T01:10:38;98653.22;;;6.83;80.46
76404;BME280;65232;48.358;2.122;2023-01-16T01:11:13;98641.09;;;6.80;80.60
76404;BME280;65232;48.358;2.122;2023-01-16T01:11:39;98628.81;;;6.79;80.34
76404;BME280;65232;48.358;2.122;2023-01-16T01:12:04;98621.66;;;6.80;80.68
76404;BME280;65232;48.358;2.122;2023-01-16T01:12:30;98622.66;;;6.79;80.41
76404;BME280;65232;48.358;2.122;2023-01-16T01:12:55;98611.88;;;6.80;80.54
76404;BME280;65232;48.358;2.122;2023-01-16T01:13:21;98625.47;;;6.77;80.60
76404;BME280;65232;48.358;2.122;2023-01-16T01:13:47;98622.66;;;6.79;80.79
76404;BME280;65232;48.358;2.122;2023-01-16T01:14:12;98614.53;;;6.80;80.61
76404;BME280;65232;48.358;2.122;2023-01-16T01:14:38;98621.97;;;6.77;80.85
76404;BME280;65232;48.358;2.122;2023-01-16T01:15:04;98597.53;;;6.73;80.54
76404;BME280;65232;48.358;2.122;2023-01-16T01:15:30;98605.88;;;6.78;80.67
76404;BME280;65232;48.358;2.122;2023-01-16T01:15:56;98598.88;;;6.77;80.71
76404;BME280;65232;48.358;2.122;2023-01-16T01:16:21;98600.41;;;6.80;80.70
76404;BME280;65232;48.358;2.122;2023-01-16T01:16:47;98601.22;;;6.80;80.59
76404;BME280;65232;48.358;2.122;2023-01-16T01:17:12;98593.75;;;6.84;80.51
76404;BME280;65232;48.358;2.122;2023-01-16T01:17:38;98588.09;;;6.79;80.69
76404;BME280;65232;48.358;2.122;2023-01-16T01:18:03;98575.34;;;6.82;80.61
76404;BME280;65232;48.358;2.122;2023-01-16T01:18:29;98598.41;;;6.82;80.39
76404;BME280;65232;48.358;2.122;2023-01-16T01:18:55;98570.66;;;6.84;80.76
76404;BME280;65232;48.358;2.122;2023-01-16T01:19:20;98586.63;;;6.84;80.70
76404;BME280;65232;48.358;2.122;2023-01-16T01:19:46;98577.66;;;6.85;80.55
76404;BME280;65232;48.358;2.122;2023-01-16T01:20:12;98585.63;;;6.85;80.33
76404;BME280;65232;48.358;2.122;2023-01-16T01:20:37;98568.34;;;6.81;80.50
76404;BME280;65232;48.358;2.122;2023-01-16T01:21:03;98566.19;;;6.85;80.29
76404;BME280;65232;48.358;2.122;2023-01-16T01:21:28;98559.72;;;6.87;80.26
76404;BME280;65232;48.358;2.122;2023-01-16T01:21:54;98562.22;;;6.89;80.48
76404;BME280;65232;48.358;2.122;2023-01-16T01:22:19;98571.66;;;6.83;80.54
76404;BME280;65232;48.358;2.122;2023-01-16T01:22:45;98560.19;;;6.83;80.38
76404;BME280;65232;48.358;2.122;2023-01-16T01:23:11;98550.38;;;6.83;80.47
76404;BME280;65232;48.358;2.122;2023-01-16T01:23:36;98573.16;;;6.86;80.39
76404;BME280;65232;48.358;2.122;2023-01-16T01:24:02;98553.72;;;6.85;80.68
76404;BME280;65232;48.358;2.122;2023-01-16T01:24:27;98541.94;;;6.88;80.40
76404;BME280;65232;48.358;2.122;2023-01-16T01:24:53;98545.28;;;6.90;80.32
76404;BME280;65232;48.358;2.122;2023-01-16T01:25:18;98556.59;;;6.92;80.47
76404;BME280;65232;48.358;2.122;2023-01-16T01:25:44;98549.91;;;6.88;80.34
76404;BME280;65232;48.358;2.122;2023-01-16T01:26:12;98528.66;;;6.88;80.61
76404;BME280;65232;48.358;2.122;2023-01-16T01:26:38;98536.63;;;6.88;80.80
76404;BME280;65232;48.358;2.122;2023-01-16T01:27:03;98530.78;;;6.84;80.85
76404;BME280;65232;48.358;2.122;2023-01-16T01:27:29;98540.28;;;6.87;80.65
76404;BME280;65232;48.358;2.122;2023-01-16T01:27:54;98528.81;;;6.86;80.78
76404;BME280;65232;48.358;2.122;2023-01-16T01:28:20;98533.13;;;6.87;80.84
76404;BME280;65232;48.358;2.122;2023-01-16T01:28:46;98530.47;;;6.87;80.53
76404;BME280;65232;48.358;2.122;2023-01-16T01:29:11;98523.66;;;6.85;80.39
76404;BME280;65232;48.358;2.122;2023-01-16T01:29:36;98519.84;;;6.87;80.58
76404;BME280;65232;48.358;2.122;2023-01-16T01:30:03;98518.69;;;6.90;80.54
76404;BME280;65232;48.358;2.122;2023-01-16T01:30:28;98507.38;;;6.88;80.62
76404;BME280;65232;48.358;2.122;2023-01-16T01:30:54;98505.56;;;6.88;80.45
76404;BME280;65232;48.358;2.122;2023-01-16T01:31:19;98511.88;;;6.87;80.54
76404;BME280;65232;48.358;2.122;2023-01-16T01:31:45;98506.41;;;6.89;80.48
76404;BME280;65232;48.358;2.122;2023-01-16T01:32:10;98496.91;;;6.86;80.21
76404;BME280;65232;48.358;2.122;2023-01-16T01:32:36;98486.59;;;6.83;80.19
76404;BME280;65232;48.358;2.122;2023-01-16T01:33:04;98480.44;;;6.83;80.78
76404;BME280;65232;48.358;2.122;2023-01-16T01:33:30;98495.25;;;6.85;80.38
76404;BME280;65232;48.358;2.122;2023-01-16T01:33:55;98486.94;;;6.88;80.66
76404;BME280;65232;48.358;2.122;2023-01-16T01:34:21;98480.13;;;6.86;80.73
76404;BME280;65232;48.358;2.122;2023-01-16T01:34:46;98488.41;;;6.83;80.53
76404;BME280;65232;48.358;2.122;2023-01-16T01:35:12;98475.97;;;6.83;80.84
76404;BME280;65232;48.358;2.122;2023-01-16T01:35:37;98459.19;;;6.83;80.69
76404;BME280;65232;48.358;2.122;2023-01-16T01:36:04;98472.47;;;6.83;80.65
76404;BME280;65232;48.358;2.122;2023-01-16T01:36:30;98472.31;;;6.84;80.78
76404;BME280;65232;48.358;2.122;2023-01-16T01:36:55;98461.03;;;6.82;80.83
76404;BME280;65232;48.358;2.122;2023-01-16T01:37:21;98452.72;;;6.85;80.78
76404;BME280;65232;48.358;2.122;2023-01-16T01:37:46;98473.50;;;6.82;80.42
76404;BME280;65232;48.358;2.122;2023-01-16T01:38:12;98448.38;;;6.84;80.43
76404;BME280;65232;48.358;2.122;2023-01-16T01:38:37;98453.06;;;6.82;80.44
76404;BME280;65232;48.358;2.122;2023-01-16T01:39:03;98452.03;;;6.83;80.66
76404;BME280;65232;48.358;2.122;2023-01-16T01:39:29;98452.56;;;6.87;80.83
76404;BME280;65232;48.358;2.122;2023-01-16T01:39:55;98443.06;;;6.84;80.34
76404;BME280;65232;48.358;2.122;2023-01-16T01:40:20;98431.13;;;6.88;80.18
76404;BME280;65232;48.358;2.122;2023-01-16T01:40:46;98445.56;;;6.86;80.34
76404;BME280;65232;48.358;2.122;2023-01-16T01:41:14;98447.56;;;6.84;80.47
76404;BME280;65232;48.358;2.122;2023-01-16T01:41:40;98436.59;;;6.87;80.49
76404;BME280;65232;48.358;2.122;2023-01-16T01:42:11;98443.09;;;6.92;80.50
76404;BME280;65232;48.358;2.122;2023-01-16T01:42:55;98434.47;;;6.90;80.18
76404;BME280;65232;48.358;2.122;2023-01-16T01:43:21;98422.66;;;6.93;80.18
76404;BME280;65232;48.358;2.122;2023-01-16T01:43:50;98421.16;;;6.90;80.24
76404;BME280;65232;48.358;2.122;2023-01-16T01:44:44;98408.19;;;6.87;80.49
76404;BME280;65232;48.358;2.122;2023-01-16T01:45:43;98426.81;;;6.87;80.98
76404;BME280;65232;48.358;2.122;2023-01-16T01:46:41;98422.16;;;6.89;80.66
76404;BME280;65232;48.358;2.122;2023-01-16T01:47:08;98421.66;;;6.86;80.76
76404;BME280;65232;48.358;2.122;2023-01-16T01:47:36;98425.28;;;6.85;81.01
76404;BME280;65232;48.358;2.122;2023-01-16T01:48:17;98420.81;;;6.85;80.58
76404;BME280;65232;48.358;2.122;2023-01-16T01:48:45;98421.97;;;6.83;81.13
76404;BME280;65232;48.358;2.122;2023-01-16T01:49:40;98410.69;;;6.81;81.21
76404;BME280;65232;48.358;2.122;2023-01-16T01:50:20;98404.19;;;6.75;81.63
76404;BME280;65232;48.358;2.122;2023-01-16T01:50:52;98412.31;;;6.73;82.31
76404;BME280;65232;48.358;2.122;2023-01-16T01:51:25;98397.88;;;6.76;82.27
76404;BME280;65232;48.358;2.122;2023-01-16T01:51:54;98409.34;;;6.77;82.84
76404;BME280;65232;48.358;2.122;2023-01-16T01:52:22;98412.81;;;6.77;82.14
76404;BME280;65232;48.358;2.122;2023-01-16T01:52:48;98394.91;;;6.79;82.10
76404;BME280;65232;48.358;2.122;2023-01-16T01:53:35;98390.56;;;6.78;82.38
76404;BME280;65232;48.358;2.122;2023-01-16T01:54:06;98390.72;;;6.77;82.89
76404;BME280;65232;48.358;2.122;2023-01-16T01:54:36;98396.56;;;6.80;82.91
76404;BME280;65232;48.358;2.122;2023-01-16T01:55:05;98387.41;;;6.75;82.58
76404;BME280;65232;48.358;2.122;2023-01-16T01:55:31;98370.47;;;6.76;82.62
76404;BME280;65232;48.358;2.122;2023-01-16T01:56:02;98369.44;;;6.68;82.95
76404;BME280;65232;48.358;2.122;2023-01-16T01:56:36;98374.75;;;6.68;83.38
76404;BME280;65232;48.358;2.122;2023-01-16T01:57:35;98361.81;;;6.65;83.52
76404;BME280;65232;48.358;2.122;2023-01-16T01:58:02;98363.78;;;6.63;83.60
76404;BME280;65232;48.358;2.122;2023-01-16T01:58:29;98356.81;;;6.62;83.55
76404;BME280;65232;48.358;2.122;2023-01-16T01:58:58;98366.13;;;6.66;83.63
76404;BME280;65232;48.358;2.122;2023-01-16T01:59:29;98349.50;;;6.64;83.71
76404;BME280;65232;48.358;2.122;2023-01-16T02:00:07;98335.25;;;6.65;83.68
76404;BME280;65232;48.358;2.122;2023-01-16T02:00:37;98338.56;;;6.67;83.95
76404;BME280;65232;48.358;2.122;2023-01-16T02:01:03;98335.06;;;6.67;83.75
76404;BME280;65232;48.358;2.122;2023-01-16T02:01:28;98334.06;;;6.68;84.11
76404;BME280;65232;48.358;2.122;2023-01-16T02:01:55;98335.41;;;6.64;83.52
76404;BME280;65232;48.358;2.122;2023-01-16T02:02:21;98330.56;;;6.59;84.53
76404;BME280;65232;48.358;2.122;2023-01-16T02:03:51;98328.06;;;6.58;84.88
76404;BME280;65232;48.358;2.122;2023-01-16T02:04:23;98317.13;;;6.61;85.38
76404;BME280;65232;48.358;2.122;2023-01-16T02:04:52;98318.44;;;6.57;85.07
76404;BME280;65232;48.358;2.122;2023-01-16T02:05:31;98304.00;;;6.59;84.65
76404;BME280;65232;48.358;2.122;2023-01-16T02:05:59;98316.28;;;6.60;84.75
76404;BME280;65232;48.358;2.122;2023-01-16T02:06:32;98314.63;;;6.51;85.11
76404;BME280;65232;48.358;2.122;2023-01-16T02:07:02;98342.50;;;6.55;84.91
76404;BME280;65232;48.358;2.122;2023-01-16T02:07:28;98296.50;;;6.55;84.83
76404;BME280;65232;48.358;2.122;2023-01-16T02:07:54;98298.31;;;6.54;85.19
76404;BME280;65232;48.358;2.122;2023-01-16T02:08:20;98301.81;;;6.55;85.07
76404;BME280;65232;48.358;2.122;2023-01-16T02:08:48;98290.72;;;6.59;85.18
76404;BME280;65232;48.358;2.122;2023-01-16T02:09:17;98303.16;;;6.59;85.54
76404;BME280;65232;48.358;2.122;2023-01-16T02:09:43;98300.81;;;6.56;85.63
76404;BME280;65232;48.358;2.122;2023-01-16T02:10:49;98283.38;;;6.53;84.98
76404;BME280;65232;48.358;2.122;2023-01-16T02:11:22;98294.50;;;6.57;85.08
76404;BME280;65232;48.358;2.122;2023-01-16T02:11:58;98297.34;;;6.55;85.26
76404;BME280;65232;48.358;2.122;2023-01-16T02:12:26;98288.38;;;6.48;85.50
76404;BME280;65232;48.358;2.122;2023-01-16T02:12:53;98284.56;;;6.51;85.28
76404;BME280;65232;48.358;2.122;2023-01-16T02:13:19;98265.44;;;6.47;85.31
76404;BME280;65232;48.358;2.122;2023-01-16T02:13:44;98259.16;;;6.48;85.34
76404;BME280;65232;48.358;2.122;2023-01-16T02:14:13;98270.09;;;6.53;85.66
76404;BME280;65232;48.358;2.122;2023-01-16T02:14:42;98257.84;;;6.52;85.33
76404;BME280;65232;48.358;2.122;2023-01-16T02:15:09;98275.09;;;6.48;85.21
76404;BME280;65232;48.358;2.122;2023-01-16T02:15:36;98256.50;;;6.48;84.62
76404;BME280;65232;48.358;2.122;2023-01-16T02:16:02;98253.84;;;6.48;85.16
76404;BME280;65232;48.358;2.122;2023-01-16T02:16:48;98255.16;;;6.44;85.20
76404;BME280;65232;48.358;2.122;2023-01-16T02:17:43;98234.56;;;6.46;85.13
76404;BME280;65232;48.358;2.122;2023-01-16T02:18:28;98228.25;;;6.47;85.40
76404;BME280;65232;48.358;2.122;2023-01-16T02:20:48;98238.88;;;6.47;85.67
76404;BME280;65232;48.358;2.122;2023-01-16T02:23:59;98202.50;;;6.40;86.00
76404;BME280;65232;48.358;2.122;2023-01-16T02:25:59;98207.81;;;6.40;85.78
76404;BME280;65232;48.358;2.122;2023-01-16T02:26:50;98207.81;;;6.40;85.62
76404;BME280;65232;48.358;2.122;2023-01-16T02:27:25;98197.19;;;6.40;85.89
76404;BME280;65232;48.358;2.122;2023-01-16T02:28:11;98205.84;;;6.42;85.89
76404;BME280;65232;48.358;2.122;2023-01-16T02:30:05;98212.66;;;6.36;85.88
76404;BME280;65232;48.358;2.122;2023-01-16T02:32:45;98163.34;;;6.33;86.25
76404;BME280;65232;48.358;2.122;2023-01-16T02:35:44;98156.53;;;6.31;86.75
76404;BME280;65232;48.358;2.122;2023-01-16T02:36:44;98160.69;;;6.33;85.45
76404;BME280;65232;48.358;2.122;2023-01-16T02:38:01;98153.22;;;6.29;86.06
76404;BME280;65232;48.358;2.122;2023-01-16T02:38:38;98134.78;;;6.27;86.01
76404;BME280;65232;48.358;2.122;2023-01-16T02:40:48;98155.03;;;6.28;86.78
76404;BME280;65232;48.358;2.122;2023-01-16T02:41:26;98159.50;;;6.28;86.31
76404;BME280;65232;48.358;2.122;2023-01-16T02:42:14;98138.59;;;6.33;86.42
76404;BME280;65232;48.358;2.122;2023-01-16T02:42:55;98143.41;;;6.29;86.47
76404;BME280;65232;48.358;2.122;2023-01-16T02:43:52;98141.91;;;6.27;86.46
76404;BME280;65232;48.358;2.122;2023-01-16T02:45:31;98128.47;;;6.28;86.38
76404;BME280;65232;48.358;2.122;2023-01-16T02:46:17;98133.44;;;6.23;87.02
76404;BME280;65232;48.358;2.122;2023-01-16T02:46:58;98132.66;;;6.23;86.75
76404;BME280;65232;48.358;2.122;2023-01-16T02:47:41;98123.50;;;6.25;87.30